sensor_id;sensor_type;location;lat;lon;timestamp;P1;durP1;ratioP1;P2;durP2;ratioP2
840;SDS011;406;48.566;13.450;2023-07-31T00:01:03;5.83;;;3.03;;
840;SDS011;406;48.566;13.450;2023-07-31T00:03:29;5.17;;;2.00;;
840;SDS011;406;48.566;13.450;2023-07-31T00:05:56;2.97;;;2.20;;
840;SDS011;406;48.566;13.450;2023-07-31T00:08:22;5.77;;;2.73;;
840;SDS011;406;48.566;13.450;2023-07-31T00:10:51;2.30;;;2.10;;
840;SDS011;406;48.566;13.450;2023-07-31T00:13:18;4.50;;;2.67;;
840;SDS011;406;48.566;13.450;2023-07-31T00:15:45;2.50;;;2.30;;
840;SDS011;406;48.566;13.450;2023-07-31T00:18:12;4.63;;;2.73;;
840;SDS011;406;48.566;13.450;2023-07-31T00:20:38;5.00;;;2.40;;
840;SDS011;406;48.566;13.450;2023-07-31T00:23:05;3.33;;;1.80;;
840;SDS011;406;48.566;13.450;2023-07-31T00:25:31;7.43;;;2.50;;
840;SDS011;406;48.566;13.450;2023-07-31T00:27:58;4.50;;;2.40;;
840;SDS011;406;48.566;13.450;2023-07-31T00:30:25;4.40;;;2.93;;
840;SDS011;406;48.566;13.450;2023-07-31T00:32:53;3.13;;;2.00;;
840;SDS011;406;48.566;13.450;2023-07-31T00:35:19;6.07;;;2.77;;
840;SDS011;406;48.566;13.450;2023-07-31T00:37:46;3.03;;;2.30;;
840;SDS011;406;48.566;13.450;2023-07-31T00:40:12;4.90;;;2.53;;
840;SDS011;406;48.566;13.450;2023-07-31T00:42:40;2.93;;;2.50;;
840;SDS011;406;48.566;13.450;2023-07-31T00:45:07;5.50;;;3.90;;
840;SDS011;406;48.566;13.450;2023-07-31T00:47:33;5.13;;;2.40;;
840;SDS011;406;48.566;13.450;2023-07-31T00:50:00;4.80;;;2.40;;
840;SDS011;406;48.566;13.450;2023-07-31T00:52:27;3.13;;;2.83;;
840;SDS011;406;48.566;13.450;2023-07-31T00:54:55;6.40;;;2.93;;
840;SDS011;406;48.566;13.450;2023-07-31T00:57:21;3.70;;;3.10;;
840;SDS011;406;48.566;13.450;2023-07-31T00:59:50;6.47;;;2.93;;
840;SDS011;406;48.566;13.450;2023-07-31T01:02:17;3.83;;;2.80;;
840;SDS011;406;48.566;13.450;2023-07-31T01:04:44;3.27;;;2.83;;
840;SDS011;406;48.566;13.450;2023-07-31T01:07:20;3.93;;;2.80;;
840;SDS011;406;48.566;13.450;2023-07-31T01:09:53;4.90;;;3.50;;
840;SDS011;406;48.566;13.450;2023-07-31T01:12:27;3.00;;;2.30;;
840;SDS011;406;48.566;13.450;2023-07-31T01:17:27;5.20;;;2.70;;
840;SDS011;406;48.566;13.450;2023-07-31T01:19:54;5.03;;;2.70;;
840;SDS011;406;48.566;13.450;2023-07-31T01:22:38;13.20;;;4.63;;
840;SDS011;406;48.566;13.450;2023-07-31T01:28:24;6.43;;;3.70;;
840;SDS011;406;48.566;13.450;2023-07-31T01:30:54;4.57;;;3.50;;
840;SDS011;406;48.566;13.450;2023-07-31T01:33:21;4.57;;;3.53;;
840;SDS011;406;48.566;13.450;2023-07-31T01:35:49;8.40;;;3.60;;
840;SDS011;406;48.566;13.450;2023-07-31T01:38:16;3.70;;;3.27;;
840;SDS011;406;48.566;13.450;2023-07-31T01:40:49;6.23;;;3.57;;
840;SDS011;406;48.566;13.450;2023-07-31T01:43:17;5.67;;;3.30;;
840;SDS011;406;48.566;13.450;2023-07-31T01:45:44;7.27;;;3.83;;
840;SDS011;406;48.566;13.450;2023-07-31T01:48:10;5.70;;;3.47;;
840;SDS011;406;48.566;13.450;2023-07-31T01:50:37;5.17;;;3.20;;
840;SDS011;406;48.566;13.450;2023-07-31T01:53:03;10.57;;;3.90;;
840;SDS011;406;48.566;13.450;2023-07-31T01:55:31;8.23;;;3.60;;
840;SDS011;406;48.566;13.450;2023-07-31T01:57:57;4.10;;;3.00;;
840;SDS011;406;48.566;13.450;2023-07-31T02:00:24;5.37;;;3.37;;
840;SDS011;406;48.566;13.450;2023-07-31T02:02:50;2.97;;;2.70;;
840;SDS011;406;48.566;13.450;2023-07-31T02:05:18;5.33;;;2.73;;
840;SDS011;406;48.566;13.450;2023-07-31T02:07:45;5.83;;;3.33;;
840;SDS011;406;48.566;13.450;2023-07-31T02:10:11;4.03;;;3.23;;
840;SDS011;406;48.566;13.450;2023-07-31T02:12:38;6.17;;;3.80;;
840;SDS011;406;48.566;13.450;2023-07-31T02:15:04;5.60;;;3.13;;
840;SDS011;406;48.566;13.450;2023-07-31T02:17:31;3.87;;;3.37;;
840;SDS011;406;48.566;13.450;2023-07-31T02:19:59;6.60;;;3.43;;
840;SDS011;406;48.566;13.450;2023-07-31T02:22:26;7.33;;;3.40;;
840;SDS011;406;48.566;13.450;2023-07-31T02:24:52;4.30;;;3.00;;
840;SDS011;406;48.566;13.450;2023-07-31T02:27:21;3.90;;;3.00;;
840;SDS011;406;48.566;13.450;2023-07-31T02:29:50;7.00;;;3.20;;
840;SDS011;406;48.566;13.450;2023-07-31T02:32:16;5.20;;;3.07;;
840;SDS011;406;48.566;13.450;2023-07-31T02:34:43;4.20;;;3.17;;
840;SDS011;406;48.566;13.450;2023-07-31T02:37:09;6.20;;;3.27;;
840;SDS011;406;48.566;13.450;2023-07-31T02:39:36;4.20;;;2.90;;
840;SDS011;406;48.566;13.450;2023-07-31T02:42:02;4.90;;;2.87;;
840;SDS011;406;48.566;13.450;2023-07-31T02:44:30;5.50;;;3.83;;
840;SDS011;406;48.566;13.450;2023-07-31T02:46:57;3.87;;;3.23;;
840;SDS011;406;48.566;13.450;2023-07-31T02:49:23;8.87;;;3.87;;
840;SDS011;406;48.566;13.450;2023-07-31T02:51:50;6.00;;;3.30;;
840;SDS011;406;48.566;13.450;2023-07-31T02:54:16;3.97;;;3.57;;
840;SDS011;406;48.566;13.450;2023-07-31T02:56:43;4.77;;;3.23;;
840;SDS011;406;48.566;13.450;2023-07-31T02:59:09;4.93;;;3.57;;
840;SDS011;406;48.566;13.450;2023-07-31T03:01:36;6.73;;;3.40;;
840;SDS011;406;48.566;13.450;2023-07-31T03:04:03;5.67;;;3.90;;
840;SDS011;406;48.566;13.450;2023-07-31T03:06:30;6.50;;;3.37;;
840;SDS011;406;48.566;13.450;2023-07-31T03:08:57;3.70;;;2.80;;
840;SDS011;406;48.566;13.450;2023-07-31T03:11:23;6.57;;;4.63;;
840;SDS011;406;48.566;13.450;2023-07-31T03:13:50;10.83;;;4.57;;
840;SDS011;406;48.566;13.450;2023-07-31T03:16:16;4.60;;;4.20;;
840;SDS011;406;48.566;13.450;2023-07-31T03:18:43;11.03;;;4.50;;
840;SDS011;406;48.566;13.450;2023-07-31T03:21:10;7.50;;;4.13;;
840;SDS011;406;48.566;13.450;2023-07-31T03:23:36;6.40;;;2.90;;
840;SDS011;406;48.566;13.450;2023-07-31T03:26:05;4.60;;;3.60;;
840;SDS011;406;48.566;13.450;2023-07-31T03:28:32;4.17;;;3.20;;
840;SDS011;406;48.566;13.450;2023-07-31T03:30:58;5.80;;;3.67;;
840;SDS011;406;48.566;13.450;2023-07-31T03:33:26;5.83;;;3.60;;
840;SDS011;406;48.566;13.450;2023-07-31T03:35:52;6.10;;;4.03;;
840;SDS011;406;48.566;13.450;2023-07-31T03:38:19;3.70;;;3.20;;
840;SDS011;406;48.566;13.450;2023-07-31T03:40:45;3.77;;;3.20;;
840;SDS011;406;48.566;13.450;2023-07-31T03:43:12;7.03;;;4.00;;
840;SDS011;406;48.566;13.450;2023-07-31T03:45:39;4.93;;;3.00;;
840;SDS011;406;48.566;13.450;2023-07-31T03:48:05;9.33;;;3.57;;
840;SDS011;406;48.566;13.450;2023-07-31T03:50:32;5.70;;;3.77;;
840;SDS011;406;48.566;13.450;2023-07-31T03:52:59;4.90;;;3.83;;
840;SDS011;406;48.566;13.450;2023-07-31T03:55:26;6.80;;;3.30;;
840;SDS011;406;48.566;13.450;2023-07-31T03:57:52;5.50;;;3.07;;
840;SDS011;406;48.566;13.450;2023-07-31T04:00:19;7.20;;;3.37;;
840;SDS011;406;48.566;13.450;2023-07-31T04:02:46;4.27;;;3.17;;
840;SDS011;406;48.566;13.450;2023-07-31T04:05:13;5.43;;;3.73;;
840;SDS011;406;48.566;13.450;2023-07-31T04:07:40;7.87;;;3.87;;
840;SDS011;406;48.566;13.450;2023-07-31T04:10:06;5.87;;;3.70;;
840;SDS011;406;48.566;13.450;2023-07-31T04:12:35;6.50;;;4.50;;
840;SDS011;406;48.566;13.450;2023-07-31T04:15:02;3.50;;;3.20;;
840;SDS011;406;48.566;13.450;2023-07-31T04:17:29;7.07;;;3.60;;
840;SDS011;406;48.566;13.450;2023-07-31T04:19:55;6.93;;;4.10;;
840;SDS011;406;48.566;13.450;2023-07-31T04:22:22;4.20;;;3.40;;
840;SDS011;406;48.566;13.450;2023-07-31T04:24:48;8.40;;;3.37;;
840;SDS011;406;48.566;13.450;2023-07-31T04:27:15;5.30;;;4.20;;
840;SDS011;406;48.566;13.450;2023-07-31T04:29:41;5.30;;;4.30;;
840;SDS011;406;48.566;13.450;2023-07-31T04:32:08;6.60;;;4.10;;
840;SDS011;406;48.566;13.450;2023-07-31T04:34:35;6.60;;;4.70;;
840;SDS011;406;48.566;13.450;2023-07-31T04:37:01;6.97;;;3.87;;
840;SDS011;406;48.566;13.450;2023-07-31T04:39:28;4.10;;;3.70;;
840;SDS011;406;48.566;13.450;2023-07-31T04:41:55;9.00;;;4.60;;
840;SDS011;406;48.566;13.450;2023-07-31T04:44:21;6.70;;;4.30;;
840;SDS011;406;48.566;13.450;2023-07-31T04:46:48;3.83;;;3.43;;
840;SDS011;406;48.566;13.450;2023-07-31T04:49:14;3.63;;;3.20;;
840;SDS011;406;48.566;13.450;2023-07-31T04:51:41;4.40;;;3.97;;
840;SDS011;406;48.566;13.450;2023-07-31T04:54:07;4.90;;;3.97;;
840;SDS011;406;48.566;13.450;2023-07-31T04:56:34;5.10;;;3.30;;
840;SDS011;406;48.566;13.450;2023-07-31T04:59:00;4.67;;;3.63;;
840;SDS011;406;48.566;13.450;2023-07-31T05:01:27;5.40;;;4.37;;
840;SDS011;406;48.566;13.450;2023-07-31T05:03:53;9.93;;;4.50;;
840;SDS011;406;48.566;13.450;2023-07-31T05:06:20;7.97;;;4.27;;
840;SDS011;406;48.566;13.450;2023-07-31T05:08:46;5.67;;;4.70;;
840;SDS011;406;48.566;13.450;2023-07-31T05:11:13;9.77;;;4.10;;
840;SDS011;406;48.566;13.450;2023-07-31T05:13:39;4.70;;;4.30;;
840;SDS011;406;48.566;13.450;2023-07-31T05:16:06;5.10;;;3.50;;
840;SDS011;406;48.566;13.450;2023-07-31T05:18:32;6.70;;;3.90;;
840;SDS011;406;48.566;13.450;2023-07-31T05:20:59;4.43;;;3.70;;
840;SDS011;406;48.566;13.450;2023-07-31T05:23:25;4.67;;;4.20;;
840;SDS011;406;48.566;13.450;2023-07-31T05:25:52;9.50;;;3.90;;
840;SDS011;406;48.566;13.450;2023-07-31T05:28:18;8.07;;;4.27;;
840;SDS011;406;48.566;13.450;2023-07-31T05:30:45;7.40;;;4.27;;
840;SDS011;406;48.566;13.450;2023-07-31T05:33:11;9.00;;;5.30;;
840;SDS011;406;48.566;13.450;2023-07-31T05:35:40;6.23;;;3.70;;
840;SDS011;406;48.566;13.450;2023-07-31T05:38:07;6.43;;;4.23;;
840;SDS011;406;48.566;13.450;2023-07-31T05:40:33;5.77;;;4.03;;
840;SDS011;406;48.566;13.450;2023-07-31T05:43:00;5.10;;;4.00;;
840;SDS011;406;48.566;13.450;2023-07-31T05:45:26;4.30;;;3.90;;
840;SDS011;406;48.566;13.450;2023-07-31T05:47:53;7.70;;;5.60;;
840;SDS011;406;48.566;13.450;2023-07-31T05:50:19;8.57;;;4.67;;
840;SDS011;406;48.566;13.450;2023-07-31T05:52:46;7.03;;;4.23;;
840;SDS011;406;48.566;13.450;2023-07-31T05:55:12;4.70;;;4.20;;
840;SDS011;406;48.566;13.450;2023-07-31T05:57:39;7.03;;;4.33;;
840;SDS011;406;48.566;13.450;2023-07-31T06:00:06;9.00;;;3.80;;
840;SDS011;406;48.566;13.450;2023-07-31T06:02:33;8.23;;;4.57;;
840;SDS011;406;48.566;13.450;2023-07-31T06:05:04;12.13;;;4.13;;
840;SDS011;406;48.566;13.450;2023-07-31T06:07:32;4.10;;;3.30;;
840;SDS011;406;48.566;13.450;2023-07-31T06:09:59;4.30;;;3.40;;
840;SDS011;406;48.566;13.450;2023-07-31T06:12:31;4.53;;;3.17;;
840;SDS011;406;48.566;13.450;2023-07-31T06:14:58;7.20;;;3.87;;
840;SDS011;406;48.566;13.450;2023-07-31T06:17:25;3.97;;;2.80;;
840;SDS011;406;48.566;13.450;2023-07-31T06:19:55;6.10;;;3.87;;
840;SDS011;406;48.566;13.450;2023-07-31T06:22:22;5.03;;;3.63;;
840;SDS011;406;48.566;13.450;2023-07-31T06:24:49;5.33;;;3.50;;
840;SDS011;406;48.566;13.450;2023-07-31T06:27:15;6.40;;;3.50;;
840;SDS011;406;48.566;13.450;2023-07-31T06:29:42;5.10;;;3.50;;
840;SDS011;406;48.566;13.450;2023-07-31T06:32:09;6.87;;;2.63;;
840;SDS011;406;48.566;13.450;2023-07-31T06:34:35;3.47;;;2.93;;
840;SDS011;406;48.566;13.450;2023-07-31T06:37:02;4.63;;;3.27;;
840;SDS011;406;48.566;13.450;2023-07-31T06:39:28;3.10;;;2.10;;
840;SDS011;406;48.566;13.450;2023-07-31T06:41:55;4.63;;;2.93;;
840;SDS011;406;48.566;13.450;2023-07-31T06:44:21;2.47;;;2.00;;
840;SDS011;406;48.566;13.450;2023-07-31T06:46:48;4.27;;;2.20;;
840;SDS011;406;48.566;13.450;2023-07-31T06:49:14;4.83;;;2.33;;
840;SDS011;406;48.566;13.450;2023-07-31T06:51:44;3.80;;;2.10;;
840;SDS011;406;48.566;13.450;2023-07-31T06:54:10;4.30;;;1.90;;
840;SDS011;406;48.566;13.450;2023-07-31T06:56:37;2.83;;;2.00;;
840;SDS011;406;48.566;13.450;2023-07-31T06:59:06;4.00;;;2.67;;
840;SDS011;406;48.566;13.450;2023-07-31T07:01:34;4.30;;;1.87;;
840;SDS011;406;48.566;13.450;2023-07-31T07:04:00;3.87;;;2.03;;
840;SDS011;406;48.566;13.450;2023-07-31T07:06:27;5.60;;;2.00;;
840;SDS011;406;48.566;13.450;2023-07-31T07:08:53;4.77;;;1.90;;
840;SDS011;406;48.566;13.450;2023-07-31T07:11:20;2.57;;;2.10;;
840;SDS011;406;48.566;13.450;2023-07-31T07:13:46;2.40;;;2.00;;
840;SDS011;406;48.566;13.450;2023-07-31T07:16:13;7.07;;;2.43;;
840;SDS011;406;48.566;13.450;2023-07-31T07:18:40;3.27;;;2.10;;
840;SDS011;406;48.566;13.450;2023-07-31T07:21:23;3.50;;;2.27;;
840;SDS011;406;48.566;13.450;2023-07-31T07:23:50;3.40;;;2.17;;
840;SDS011;406;48.566;13.450;2023-07-31T07:26:16;2.73;;;2.33;;
840;SDS011;406;48.566;13.450;2023-07-31T07:28:43;2.97;;;1.77;;
840;SDS011;406;48.566;13.450;2023-07-31T07:31:09;4.20;;;1.80;;
840;SDS011;406;48.566;13.450;2023-07-31T07:33:36;3.83;;;1.90;;
840;SDS011;406;48.566;13.450;2023-07-31T07:36:03;2.63;;;1.70;;
840;SDS011;406;48.566;13.450;2023-07-31T07:38:30;2.57;;;1.63;;
840;SDS011;406;48.566;13.450;2023-07-31T07:40:56;2.50;;;1.90;;
840;SDS011;406;48.566;13.450;2023-07-31T07:43:23;5.87;;;1.87;;
840;SDS011;406;48.566;13.450;2023-07-31T07:45:49;3.50;;;2.00;;
840;SDS011;406;48.566;13.450;2023-07-31T07:48:16;3.43;;;1.70;;
840;SDS011;406;48.566;13.450;2023-07-31T07:50:43;3.10;;;1.73;;
840;SDS011;406;48.566;13.450;2023-07-31T07:53:10;2.53;;;1.77;;
840;SDS011;406;48.566;13.450;2023-07-31T07:55:36;4.13;;;2.00;;
840;SDS011;406;48.566;13.450;2023-07-31T07:58:03;3.60;;;1.77;;
840;SDS011;406;48.566;13.450;2023-07-31T08:00:29;5.20;;;1.60;;
840;SDS011;406;48.566;13.450;2023-07-31T08:02:56;3.40;;;1.70;;
840;SDS011;406;48.566;13.450;2023-07-31T08:05:24;3.70;;;2.00;;
840;SDS011;406;48.566;13.450;2023-07-31T08:07:51;3.20;;;1.70;;
840;SDS011;406;48.566;13.450;2023-07-31T08:10:17;3.60;;;1.73;;
840;SDS011;406;48.566;13.450;2023-07-31T08:12:44;5.63;;;1.90;;
840;SDS011;406;48.566;13.450;2023-07-31T08:15:11;2.37;;;1.60;;
840;SDS011;406;48.566;13.450;2023-07-31T08:17:37;3.33;;;1.60;;
840;SDS011;406;48.566;13.450;2023-07-31T08:20:04;4.20;;;2.40;;
840;SDS011;406;48.566;13.450;2023-07-31T08:22:31;2.10;;;1.80;;
840;SDS011;406;48.566;13.450;2023-07-31T08:24:57;5.93;;;2.13;;
840;SDS011;406;48.566;13.450;2023-07-31T08:27:24;2.83;;;2.10;;
840;SDS011;406;48.566;13.450;2023-07-31T08:29:51;3.40;;;1.57;;
840;SDS011;406;48.566;13.450;2023-07-31T08:32:18;2.50;;;1.73;;
840;SDS011;406;48.566;13.450;2023-07-31T08:34:44;3.47;;;1.67;;
840;SDS011;406;48.566;13.450;2023-07-31T08:37:11;2.70;;;1.47;;
840;SDS011;406;48.566;13.450;2023-07-31T08:39:59;1.80;;;1.30;;
840;SDS011;406;48.566;13.450;2023-07-31T08:42:57;2.63;;;1.73;;
840;SDS011;406;48.566;13.450;2023-07-31T08:45:28;2.27;;;1.90;;
840;SDS011;406;48.566;13.450;2023-07-31T08:47:55;3.33;;;1.90;;
840;SDS011;406;48.566;13.450;2023-07-31T08:50:23;2.43;;;2.00;;
840;SDS011;406;48.566;13.450;2023-07-31T08:52:50;2.20;;;1.80;;
840;SDS011;406;48.566;13.450;2023-07-31T08:55:18;3.60;;;1.80;;
840;SDS011;406;48.566;13.450;2023-07-31T08:57:51;3.53;;;1.67;;
840;SDS011;406;48.566;13.450;2023-07-31T09:00:19;2.57;;;1.50;;
840;SDS011;406;48.566;13.450;2023-07-31T09:05:30;3.43;;;1.90;;
840;SDS011;406;48.566;13.450;2023-07-31T09:07:57;2.80;;;1.50;;
840;SDS011;406;48.566;13.450;2023-07-31T09:10:24;1.97;;;1.50;;
840;SDS011;406;48.566;13.450;2023-07-31T09:12:51;4.87;;;1.80;;
840;SDS011;406;48.566;13.450;2023-07-31T09:15:18;3.60;;;2.07;;
840;SDS011;406;48.566;13.450;2023-07-31T09:18:02;2.00;;;1.53;;
840;SDS011;406;48.566;13.450;2023-07-31T09:20:30;2.90;;;1.50;;
840;SDS011;406;48.566;13.450;2023-07-31T09:23:02;3.30;;;1.60;;
840;SDS011;406;48.566;13.450;2023-07-31T09:25:31;3.13;;;1.60;;
840;SDS011;406;48.566;13.450;2023-07-31T09:28:08;3.93;;;1.67;;
840;SDS011;406;48.566;13.450;2023-07-31T09:30:46;3.47;;;2.07;;
840;SDS011;406;48.566;13.450;2023-07-31T09:33:14;3.37;;;1.33;;
840;SDS011;406;48.566;13.450;2023-07-31T09:35:40;4.50;;;1.80;;
840;SDS011;406;48.566;13.450;2023-07-31T09:38:10;3.37;;;1.83;;
840;SDS011;406;48.566;13.450;2023-07-31T09:40:41;5.00;;;1.50;;
840;SDS011;406;48.566;13.450;2023-07-31T09:43:10;8.40;;;2.10;;
840;SDS011;406;48.566;13.450;2023-07-31T09:45:38;2.73;;;1.70;;
840;SDS011;406;48.566;13.450;2023-07-31T09:48:08;2.90;;;1.70;;
840;SDS011;406;48.566;13.450;2023-07-31T09:50:36;6.53;;;1.80;;
840;SDS011;406;48.566;13.450;2023-07-31T09:53:04;5.30;;;2.03;;
840;SDS011;406;48.566;13.450;2023-07-31T09:55:34;2.80;;;1.60;;
840;SDS011;406;48.566;13.450;2023-07-31T09:58:05;1.87;;;1.43;;
840;SDS011;406;48.566;13.450;2023-07-31T10:00:33;4.60;;;1.57;;
840;SDS011;406;48.566;13.450;2023-07-31T10:03:01;2.87;;;1.70;;
840;SDS011;406;48.566;13.450;2023-07-31T10:05:35;2.47;;;1.30;;
840;SDS011;406;48.566;13.450;2023-07-31T10:08:09;2.90;;;1.80;;
840;SDS011;406;48.566;13.450;2023-07-31T10:10:37;1.57;;;1.37;;
840;SDS011;406;48.566;13.450;2023-07-31T10:13:07;1.37;;;1.23;;
840;SDS011;406;48.566;13.450;2023-07-31T10:15:34;1.83;;;1.40;;
840;SDS011;406;48.566;13.450;2023-07-31T10:18:02;1.80;;;1.10;;
840;SDS011;406;48.566;13.450;2023-07-31T10:20:32;2.10;;;1.33;;
840;SDS011;406;48.566;13.450;2023-07-31T10:22:58;2.30;;;1.63;;
840;SDS011;406;48.566;13.450;2023-07-31T10:25:28;2.30;;;1.67;;
840;SDS011;406;48.566;13.450;2023-07-31T10:27:55;3.27;;;1.60;;
840;SDS011;406;48.566;13.450;2023-07-31T10:30:24;4.00;;;1.67;;
840;SDS011;406;48.566;13.450;2023-07-31T10:32:53;2.00;;;1.50;;
840;SDS011;406;48.566;13.450;2023-07-31T10:35:20;2.70;;;1.60;;
840;SDS011;406;48.566;13.450;2023-07-31T10:37:50;2.00;;;1.50;;
840;SDS011;406;48.566;13.450;2023-07-31T10:40:19;2.53;;;1.30;;
840;SDS011;406;48.566;13.450;2023-07-31T10:42:48;2.07;;;1.43;;
840;SDS011;406;48.566;13.450;2023-07-31T10:48:12;3.40;;;1.83;;
840;SDS011;406;48.566;13.450;2023-07-31T10:50:48;2.63;;;1.40;;
840;SDS011;406;48.566;13.450;2023-07-31T10:53:26;2.20;;;1.67;;
840;SDS011;406;48.566;13.450;2023-07-31T10:56:08;2.20;;;2.00;;
840;SDS011;406;48.566;13.450;2023-07-31T10:58:36;3.70;;;1.60;;
840;SDS011;406;48.566;13.450;2023-07-31T11:01:04;4.80;;;1.60;;
840;SDS011;406;48.566;13.450;2023-07-31T11:03:41;2.27;;;1.90;;
840;SDS011;406;48.566;13.450;2023-07-31T11:06:09;2.73;;;1.50;;
840;SDS011;406;48.566;13.450;2023-07-31T11:08:41;5.10;;;2.20;;
840;SDS011;406;48.566;13.450;2023-07-31T11:11:09;2.93;;;1.87;;
840;SDS011;406;48.566;13.450;2023-07-31T11:13:40;4.43;;;2.00;;
840;SDS011;406;48.566;13.450;2023-07-31T11:16:09;2.30;;;1.63;;
840;SDS011;406;48.566;13.450;2023-07-31T11:18:38;2.60;;;1.53;;
840;SDS011;406;48.566;13.450;2023-07-31T11:21:05;4.43;;;1.90;;
840;SDS011;406;48.566;13.450;2023-07-31T11:23:32;2.17;;;1.83;;
840;SDS011;406;48.566;13.450;2023-07-31T11:25:59;2.10;;;1.63;;
840;SDS011;406;48.566;13.450;2023-07-31T11:28:30;2.27;;;2.07;;
840;SDS011;406;48.566;13.450;2023-07-31T11:30:59;2.87;;;1.50;;
840;SDS011;406;48.566;13.450;2023-07-31T11:33:26;3.57;;;1.70;;
840;SDS011;406;48.566;13.450;2023-07-31T11:35:52;3.87;;;1.77;;
840;SDS011;406;48.566;13.450;2023-07-31T11:38:29;4.03;;;1.80;;
840;SDS011;406;48.566;13.450;2023-07-31T11:41:00;2.70;;;1.70;;
840;SDS011;406;48.566;13.450;2023-07-31T11:43:30;2.87;;;1.60;;
840;SDS011;406;48.566;13.450;2023-07-31T11:45:59;3.30;;;1.90;;
840;SDS011;406;48.566;13.450;2023-07-31T11:48:32;2.57;;;2.03;;
840;SDS011;406;48.566;13.450;2023-07-31T11:51:06;2.90;;;1.80;;
840;SDS011;406;48.566;13.450;2023-07-31T11:53:53;3.10;;;1.80;;
840;SDS011;406;48.566;13.450;2023-07-31T11:56:25;3.10;;;1.90;;
840;SDS011;406;48.566;13.450;2023-07-31T11:58:53;2.20;;;1.73;;
840;SDS011;406;48.566;13.450;2023-07-31T12:01:21;1.90;;;1.80;;
840;SDS011;406;48.566;13.450;2023-07-31T12:03:49;4.13;;;1.83;;
840;SDS011;406;48.566;13.450;2023-07-31T12:06:16;2.60;;;1.93;;
840;SDS011;406;48.566;13.450;2023-07-31T12:08:42;2.23;;;2.03;;
840;SDS011;406;48.566;13.450;2023-07-31T12:11:09;2.17;;;1.97;;
840;SDS011;406;48.566;13.450;2023-07-31T12:13:35;5.60;;;2.47;;
840;SDS011;406;48.566;13.450;2023-07-31T12:16:03;2.17;;;1.77;;
840;SDS011;406;48.566;13.450;2023-07-31T12:18:33;4.70;;;1.80;;
840;SDS011;406;48.566;13.450;2023-07-31T12:21:02;5.13;;;2.27;;
840;SDS011;406;48.566;13.450;2023-07-31T12:23:30;1.77;;;1.67;;
840;SDS011;406;48.566;13.450;2023-07-31T12:28:37;2.90;;;1.97;;
840;SDS011;406;48.566;13.450;2023-07-31T12:31:05;4.60;;;1.90;;
840;SDS011;406;48.566;13.450;2023-07-31T12:33:32;2.97;;;1.63;;
840;SDS011;406;48.566;13.450;2023-07-31T12:36:02;2.70;;;1.60;;
840;SDS011;406;48.566;13.450;2023-07-31T12:38:30;2.90;;;1.60;;
840;SDS011;406;48.566;13.450;2023-07-31T12:40:57;3.07;;;1.60;;
840;SDS011;406;48.566;13.450;2023-07-31T12:43:23;2.20;;;1.83;;
840;SDS011;406;48.566;13.450;2023-07-31T12:45:50;2.27;;;2.03;;
840;SDS011;406;48.566;13.450;2023-07-31T12:48:16;2.40;;;2.20;;
840;SDS011;406;48.566;13.450;2023-07-31T12:50:43;2.37;;;1.90;;
840;SDS011;406;48.566;13.450;2023-07-31T12:53:09;2.67;;;1.87;;
840;SDS011;406;48.566;13.450;2023-07-31T12:55:36;1.70;;;1.60;;
840;SDS011;406;48.566;13.450;2023-07-31T12:58:03;3.17;;;1.77;;
840;SDS011;406;48.566;13.450;2023-07-31T13:00:30;2.93;;;2.20;;
840;SDS011;406;48.566;13.450;2023-07-31T13:02:56;3.27;;;1.83;;
840;SDS011;406;48.566;13.450;2023-07-31T13:05:23;3.23;;;2.23;;
840;SDS011;406;48.566;13.450;2023-07-31T13:07:49;2.33;;;1.90;;
840;SDS011;406;48.566;13.450;2023-07-31T13:10:18;2.50;;;1.70;;
840;SDS011;406;48.566;13.450;2023-07-31T13:12:45;2.20;;;1.80;;
840;SDS011;406;48.566;13.450;2023-07-31T13:15:12;2.60;;;1.90;;
840;SDS011;406;48.566;13.450;2023-07-31T13:17:38;2.37;;;1.63;;
840;SDS011;406;48.566;13.450;2023-07-31T13:20:05;2.40;;;1.90;;
840;SDS011;406;48.566;13.450;2023-07-31T13:22:32;2.37;;;1.93;;
840;SDS011;406;48.566;13.450;2023-07-31T13:24:59;2.30;;;2.00;;
840;SDS011;406;48.566;13.450;2023-07-31T13:27:25;2.60;;;1.60;;
840;SDS011;406;48.566;13.450;2023-07-31T13:29:52;1.80;;;1.30;;
840;SDS011;406;48.566;13.450;2023-07-31T13:32:19;3.57;;;2.07;;
840;SDS011;406;48.566;13.450;2023-07-31T13:34:47;2.20;;;1.70;;
840;SDS011;406;48.566;13.450;2023-07-31T13:37:14;2.40;;;1.90;;
840;SDS011;406;48.566;13.450;2023-07-31T13:39:41;2.67;;;1.77;;
840;SDS011;406;48.566;13.450;2023-07-31T13:42:08;4.03;;;1.80;;
840;SDS011;406;48.566;13.450;2023-07-31T13:44:35;2.27;;;1.80;;
840;SDS011;406;48.566;13.450;2023-07-31T13:47:02;3.23;;;1.73;;
840;SDS011;406;48.566;13.450;2023-07-31T13:49:29;2.47;;;1.70;;
840;SDS011;406;48.566;13.450;2023-07-31T13:51:56;2.30;;;1.67;;
840;SDS011;406;48.566;13.450;2023-07-31T13:54:23;6.67;;;2.60;;
840;SDS011;406;48.566;13.450;2023-07-31T13:56:51;4.83;;;2.03;;
840;SDS011;406;48.566;13.450;2023-07-31T13:59:18;2.30;;;2.07;;
840;SDS011;406;48.566;13.450;2023-07-31T14:01:45;2.90;;;1.90;;
840;SDS011;406;48.566;13.450;2023-07-31T14:04:12;2.07;;;1.60;;
840;SDS011;406;48.566;13.450;2023-07-31T14:06:38;2.63;;;1.63;;
840;SDS011;406;48.566;13.450;2023-07-31T14:09:05;2.60;;;1.53;;
840;SDS011;406;48.566;13.450;2023-07-31T14:11:32;2.43;;;1.70;;
840;SDS011;406;48.566;13.450;2023-07-31T14:13:59;2.33;;;1.73;;
840;SDS011;406;48.566;13.450;2023-07-31T14:16:27;2.17;;;1.70;;
840;SDS011;406;48.566;13.450;2023-07-31T14:18:54;6.03;;;1.90;;
840;SDS011;406;48.566;13.450;2023-07-31T14:21:21;4.70;;;1.60;;
840;SDS011;406;48.566;13.450;2023-07-31T14:23:48;3.03;;;1.60;;
840;SDS011;406;48.566;13.450;2023-07-31T14:26:14;2.23;;;1.80;;
840;SDS011;406;48.566;13.450;2023-07-31T14:28:41;2.50;;;2.30;;
840;SDS011;406;48.566;13.450;2023-07-31T14:31:07;2.73;;;1.77;;
840;SDS011;406;48.566;13.450;2023-07-31T14:33:34;3.33;;;1.87;;
840;SDS011;406;48.566;13.450;2023-07-31T14:36:01;2.87;;;1.90;;
840;SDS011;406;48.566;13.450;2023-07-31T14:38:27;2.77;;;1.43;;
840;SDS011;406;48.566;13.450;2023-07-31T14:40:54;3.53;;;2.03;;
840;SDS011;406;48.566;13.450;2023-07-31T14:43:20;1.93;;;1.40;;
840;SDS011;406;48.566;13.450;2023-07-31T14:45:47;2.03;;;1.50;;
840;SDS011;406;48.566;13.450;2023-07-31T14:48:13;2.33;;;2.13;;
840;SDS011;406;48.566;13.450;2023-07-31T14:50:40;2.57;;;1.80;;
840;SDS011;406;48.566;13.450;2023-07-31T14:53:06;2.37;;;1.57;;
840;SDS011;406;48.566;13.450;2023-07-31T14:55:34;1.67;;;1.57;;
840;SDS011;406;48.566;13.450;2023-07-31T14:58:00;2.73;;;1.60;;
840;SDS011;406;48.566;13.450;2023-07-31T15:00:27;3.17;;;1.70;;
840;SDS011;406;48.566;13.450;2023-07-31T15:02:53;3.70;;;1.80;;
840;SDS011;406;48.566;13.450;2023-07-31T15:05:20;2.33;;;1.50;;
840;SDS011;406;48.566;13.450;2023-07-31T15:07:46;1.67;;;1.37;;
840;SDS011;406;48.566;13.450;2023-07-31T15:10:13;3.43;;;1.57;;
840;SDS011;406;48.566;13.450;2023-07-31T15:12:40;2.57;;;1.60;;
840;SDS011;406;48.566;13.450;2023-07-31T15:15:06;2.10;;;1.90;;
840;SDS011;406;48.566;13.450;2023-07-31T15:17:33;1.97;;;1.77;;
840;SDS011;406;48.566;13.450;2023-07-31T15:20:00;1.93;;;1.60;;
840;SDS011;406;48.566;13.450;2023-07-31T15:22:29;2.43;;;1.77;;
840;SDS011;406;48.566;13.450;2023-07-31T15:24:56;2.03;;;1.57;;
840;SDS011;406;48.566;13.450;2023-07-31T15:27:23;2.20;;;1.43;;
840;SDS011;406;48.566;13.450;2023-07-31T15:29:50;5.63;;;1.80;;
840;SDS011;406;48.566;13.450;2023-07-31T15:32:19;2.60;;;1.60;;
840;SDS011;406;48.566;13.450;2023-07-31T15:34:47;3.13;;;1.83;;
840;SDS011;406;48.566;13.450;2023-07-31T15:37:14;2.60;;;1.33;;
840;SDS011;406;48.566;13.450;2023-07-31T15:39:40;2.50;;;1.73;;
840;SDS011;406;48.566;13.450;2023-07-31T15:42:07;4.47;;;1.87;;
840;SDS011;406;48.566;13.450;2023-07-31T15:44:35;3.57;;;1.83;;
840;SDS011;406;48.566;13.450;2023-07-31T15:47:02;2.43;;;2.23;;